sensor_id;sensor_type;location;lat;lon;timestamp;P1;durP1;ratioP1;P2;durP2;ratioP2
40154;SDS011;25875;48.202;16.334;2023-03-23T00:01:56;13.13;;;8.43;;
40154;SDS011;25875;48.202;16.334;2023-03-23T00:04:24;11.65;;;9.60;;
40154;SDS011;25875;48.202;16.334;2023-03-23T00:06:52;13.57;;;10.07;;
40154;SDS011;25875;48.202;16.334;2023-03-23T00:09:18;11.82;;;9.82;;
40154;SDS011;25875;48.202;16.334;2023-03-23T00:11:49;13.80;;;9.90;;
40154;SDS011;25875;48.202;16.334;2023-03-23T00:14:16;13.02;;;9.18;;
40154;SDS011;25875;48.202;16.334;2023-03-23T00:16:47;11.68;;;8.60;;
40154;SDS011;25875;48.202;16.334;2023-03-23T00:19:16;12.13;;;9.32;;
40154;SDS011;25875;48.202;16.334;2023-03-23T00:21:45;9.70;;;8.63;;
40154;SDS011;25875;48.202;16.334;2023-03-23T00:24:13;12.15;;;8.93;;
40154;SDS011;25875;48.202;16.334;2023-03-23T00:26:42;10.57;;;8.63;;
40154;SDS011;25875;48.202;16.334;2023-03-23T00:29:12;10.52;;;7.85;;
40154;SDS011;25875;48.202;16.334;2023-03-23T00:31:40;12.02;;;8.32;;
40154;SDS011;25875;48.202;16.334;2023-03-23T00:34:11;10.32;;;7.72;;
40154;SDS011;25875;48.202;16.334;2023-03-23T00:36:43;10.73;;;7.47;;
40154;SDS011;25875;48.202;16.334;2023-03-23T00:39:11;8.38;;;7.30;;
40154;SDS011;25875;48.202;16.334;2023-03-23T00:41:41;8.73;;;7.47;;
40154;SDS011;25875;48.202;16.334;2023-03-23T00:44:08;8.88;;;7.45;;
40154;SDS011;25875;48.202;16.334;2023-03-23T00:46:35;7.97;;;7.18;;
40154;SDS011;25875;48.202;16.334;2023-03-23T00:49:09;13.43;;;8.52;;
40154;SDS011;25875;48.202;16.334;2023-03-23T00:51:37;9.75;;;7.95;;
40154;SDS011;25875;48.202;16.334;2023-03-23T00:54:04;8.55;;;7.15;;
40154;SDS011;25875;48.202;16.334;2023-03-23T00:56:32;10.32;;;7.50;;
40154;SDS011;25875;48.202;16.334;2023-03-23T00:58:59;9.85;;;7.68;;
40154;SDS011;25875;48.202;16.334;2023-03-23T01:01:26;12.55;;;9.02;;
40154;SDS011;25875;48.202;16.334;2023-03-23T01:03:53;8.68;;;7.78;;
40154;SDS011;25875;48.202;16.334;2023-03-23T01:06:26;8.95;;;7.80;;
40154;SDS011;25875;48.202;16.334;2023-03-23T01:08:53;9.45;;;7.47;;
40154;SDS011;25875;48.202;16.334;2023-03-23T01:11:21;9.18;;;7.60;;
40154;SDS011;25875;48.202;16.334;2023-03-23T01:13:49;10.27;;;8.27;;
40154;SDS011;25875;48.202;16.334;2023-03-23T01:16:17;9.73;;;8.43;;
40154;SDS011;25875;48.202;16.334;2023-03-23T01:18:45;10.25;;;8.48;;
40154;SDS011;25875;48.202;16.334;2023-03-23T01:21:13;10.80;;;8.55;;
40154;SDS011;25875;48.202;16.334;2023-03-23T01:23:41;9.90;;;8.00;;
40154;SDS011;25875;48.202;16.334;2023-03-23T01:26:09;9.25;;;7.00;;
40154;SDS011;25875;48.202;16.334;2023-03-23T01:28:37;12.13;;;8.07;;
40154;SDS011;25875;48.202;16.334;2023-03-23T01:31:07;7.80;;;6.90;;
40154;SDS011;25875;48.202;16.334;2023-03-23T01:33:37;10.57;;;6.18;;
40154;SDS011;25875;48.202;16.334;2023-03-23T01:36:05;7.68;;;6.25;;
40154;SDS011;25875;48.202;16.334;2023-03-23T01:38:34;8.48;;;6.55;;
40154;SDS011;25875;48.202;16.334;2023-03-23T01:41:01;9.20;;;6.28;;
40154;SDS011;25875;48.202;16.334;2023-03-23T01:43:29;9.60;;;6.60;;
40154;SDS011;25875;48.202;16.334;2023-03-23T01:45:56;8.70;;;7.13;;
40154;SDS011;25875;48.202;16.334;2023-03-23T01:48:25;7.25;;;6.10;;
40154;SDS011;25875;48.202;16.334;2023-03-23T01:50:56;7.82;;;5.97;;
40154;SDS011;25875;48.202;16.334;2023-03-23T01:53:28;7.80;;;5.72;;
40154;SDS011;25875;48.202;16.334;2023-03-23T01:55:59;6.30;;;5.20;;
40154;SDS011;25875;48.202;16.334;2023-03-23T01:58:28;8.23;;;6.30;;
40154;SDS011;25875;48.202;16.334;2023-03-23T02:00:58;7.25;;;5.43;;
40154;SDS011;25875;48.202;16.334;2023-03-23T02:03:31;8.50;;;5.03;;
40154;SDS011;25875;48.202;16.334;2023-03-23T02:05:59;7.25;;;4.82;;
40154;SDS011;25875;48.202;16.334;2023-03-23T02:08:26;6.20;;;4.72;;
40154;SDS011;25875;48.202;16.334;2023-03-23T02:10:54;6.18;;;4.82;;
40154;SDS011;25875;48.202;16.334;2023-03-23T02:13:22;6.25;;;4.57;;
40154;SDS011;25875;48.202;16.334;2023-03-23T02:15:52;7.78;;;5.80;;
40154;SDS011;25875;48.202;16.334;2023-03-23T02:18:37;8.60;;;5.18;;
40154;SDS011;25875;48.202;16.334;2023-03-23T02:24:46;9.10;;;5.93;;
40154;SDS011;25875;48.202;16.334;2023-03-23T02:27:43;5.45;;;4.72;;
40154;SDS011;25875;48.202;16.334;2023-03-23T02:30:37;6.68;;;5.43;;
40154;SDS011;25875;48.202;16.334;2023-03-23T02:33:20;10.02;;;5.55;;
40154;SDS011;25875;48.202;16.334;2023-03-23T02:36:05;7.47;;;5.60;;
40154;SDS011;25875;48.202;16.334;2023-03-23T02:38:41;6.63;;;5.40;;
40154;SDS011;25875;48.202;16.334;2023-03-23T02:41:16;7.05;;;5.50;;
40154;SDS011;25875;48.202;16.334;2023-03-23T02:43:46;7.40;;;6.32;;
40154;SDS011;25875;48.202;16.334;2023-03-23T02:46:15;8.63;;;5.90;;
40154;SDS011;25875;48.202;16.334;2023-03-23T02:48:44;6.45;;;5.35;;
40154;SDS011;25875;48.202;16.334;2023-03-23T02:51:13;7.03;;;5.18;;
40154;SDS011;25875;48.202;16.334;2023-03-23T02:53:42;6.22;;;5.28;;
40154;SDS011;25875;48.202;16.334;2023-03-23T02:56:10;8.77;;;6.05;;
40154;SDS011;25875;48.202;16.334;2023-03-23T02:58:40;8.25;;;6.00;;
40154;SDS011;25875;48.202;16.334;2023-03-23T03:01:13;6.80;;;5.65;;
40154;SDS011;25875;48.202;16.334;2023-03-23T03:04:00;6.28;;;5.65;;
40154;SDS011;25875;48.202;16.334;2023-03-23T03:06:31;11.35;;;5.40;;
40154;SDS011;25875;48.202;16.334;2023-03-23T03:09:05;6.43;;;5.03;;
40154;SDS011;25875;48.202;16.334;2023-03-23T03:11:40;6.38;;;4.60;;
40154;SDS011;25875;48.202;16.334;2023-03-23T03:14:13;6.82;;;5.43;;
40154;SDS011;25875;48.202;16.334;2023-03-23T03:16:46;7.05;;;5.07;;
40154;SDS011;25875;48.202;16.334;2023-03-23T03:19:22;6.38;;;5.50;;
40154;SDS011;25875;48.202;16.334;2023-03-23T03:21:53;7.32;;;5.70;;
40154;SDS011;25875;48.202;16.334;2023-03-23T03:24:23;6.45;;;5.57;;
40154;SDS011;25875;48.202;16.334;2023-03-23T03:26:53;6.60;;;5.32;;
40154;SDS011;25875;48.202;16.334;2023-03-23T03:29:25;7.82;;;5.60;;
40154;SDS011;25875;48.202;16.334;2023-03-23T03:31:56;7.78;;;5.60;;
40154;SDS011;25875;48.202;16.334;2023-03-23T03:34:27;7.28;;;6.15;;
40154;SDS011;25875;48.202;16.334;2023-03-23T03:36:57;8.98;;;6.00;;
40154;SDS011;25875;48.202;16.334;2023-03-23T03:39:26;10.25;;;6.20;;
40154;SDS011;25875;48.202;16.334;2023-03-23T03:41:54;6.45;;;5.78;;
40154;SDS011;25875;48.202;16.334;2023-03-23T03:44:21;7.32;;;6.07;;
40154;SDS011;25875;48.202;16.334;2023-03-23T03:46:48;6.18;;;5.57;;
40154;SDS011;25875;48.202;16.334;2023-03-23T03:49:15;6.07;;;5.32;;
40154;SDS011;25875;48.202;16.334;2023-03-23T03:51:43;6.70;;;5.65;;
40154;SDS011;25875;48.202;16.334;2023-03-23T03:54:10;6.47;;;5.22;;
40154;SDS011;25875;48.202;16.334;2023-03-23T03:56:37;11.25;;;5.45;;
40154;SDS011;25875;48.202;16.334;2023-03-23T03:59:05;5.97;;;4.95;;
40154;SDS011;25875;48.202;16.334;2023-03-23T04:01:34;5.55;;;4.80;;
40154;SDS011;25875;48.202;16.334;2023-03-23T04:04:02;6.50;;;5.20;;
40154;SDS011;25875;48.202;16.334;2023-03-23T04:06:31;6.35;;;5.30;;
40154;SDS011;25875;48.202;16.334;2023-03-23T04:09:02;6.47;;;5.05;;
40154;SDS011;25875;48.202;16.334;2023-03-23T04:11:32;6.28;;;4.78;;
40154;SDS011;25875;48.202;16.334;2023-03-23T04:13:59;5.88;;;4.40;;
40154;SDS011;25875;48.202;16.334;2023-03-23T04:16:27;7.55;;;4.82;;
40154;SDS011;25875;48.202;16.334;2023-03-23T04:18:55;6.82;;;5.45;;
40154;SDS011;25875;48.202;16.334;2023-03-23T04:21:22;4.82;;;4.07;;
40154;SDS011;25875;48.202;16.334;2023-03-23T04:23:54;8.93;;;5.75;;
40154;SDS011;25875;48.202;16.334;2023-03-23T04:26:25;6.15;;;5.40;;
40154;SDS011;25875;48.202;16.334;2023-03-23T04:28:53;10.90;;;6.00;;
40154;SDS011;25875;48.202;16.334;2023-03-23T04:31:20;6.95;;;5.45;;
40154;SDS011;25875;48.202;16.334;2023-03-23T04:33:49;7.72;;;5.07;;
40154;SDS011;25875;48.202;16.334;2023-03-23T04:36:18;8.00;;;5.80;;
40154;SDS011;25875;48.202;16.334;2023-03-23T04:38:47;6.28;;;5.57;;
40154;SDS011;25875;48.202;16.334;2023-03-23T04:41:15;6.82;;;5.53;;
40154;SDS011;25875;48.202;16.334;2023-03-23T04:43:44;6.63;;;5.65;;
40154;SDS011;25875;48.202;16.334;2023-03-23T04:46:10;6.05;;;5.20;;
40154;SDS011;25875;48.202;16.334;2023-03-23T04:48:40;7.18;;;5.55;;
40154;SDS011;25875;48.202;16.334;2023-03-23T04:51:07;12.07;;;5.88;;
40154;SDS011;25875;48.202;16.334;2023-03-23T04:53:34;6.63;;;5.53;;
40154;SDS011;25875;48.202;16.334;2023-03-23T04:56:01;8.02;;;5.60;;
40154;SDS011;25875;48.202;16.334;2023-03-23T04:58:27;14.48;;;8.23;;
40154;SDS011;25875;48.202;16.334;2023-03-23T05:01:00;7.82;;;5.15;;
40154;SDS011;25875;48.202;16.334;2023-03-23T05:03:27;11.02;;;5.55;;
40154;SDS011;25875;48.202;16.334;2023-03-23T05:05:54;7.53;;;5.03;;
40154;SDS011;25875;48.202;16.334;2023-03-23T05:08:21;9.40;;;6.05;;
40154;SDS011;25875;48.202;16.334;2023-03-23T05:10:50;6.78;;;6.07;;
40154;SDS011;25875;48.202;16.334;2023-03-23T05:13:18;10.90;;;6.25;;
40154;SDS011;25875;48.202;16.334;2023-03-23T05:15:45;7.65;;;5.20;;
40154;SDS011;25875;48.202;16.334;2023-03-23T05:18:14;5.55;;;4.78;;
40154;SDS011;25875;48.202;16.334;2023-03-23T05:20:41;8.40;;;5.15;;
40154;SDS011;25875;48.202;16.334;2023-03-23T05:23:08;11.70;;;5.00;;
40154;SDS011;25875;48.202;16.334;2023-03-23T05:25:36;8.57;;;5.75;;
40154;SDS011;25875;48.202;16.334;2023-03-23T05:28:05;8.02;;;5.28;;
40154;SDS011;25875;48.202;16.334;2023-03-23T05:30:32;8.75;;;5.53;;
40154;SDS011;25875;48.202;16.334;2023-03-23T05:33:03;8.52;;;5.50;;
40154;SDS011;25875;48.202;16.334;2023-03-23T05:35:32;7.10;;;5.25;;
40154;SDS011;25875;48.202;16.334;2023-03-23T05:37:58;7.65;;;5.47;;
40154;SDS011;25875;48.202;16.334;2023-03-23T05:40:27;8.30;;;6.35;;
40154;SDS011;25875;48.202;16.334;2023-03-23T05:42:55;9.25;;;6.53;;
40154;SDS011;25875;48.202;16.334;2023-03-23T05:45:24;9.43;;;8.45;;
40154;SDS011;25875;48.202;16.334;2023-03-23T05:47:51;12.32;;;8.32;;
40154;SDS011;25875;48.202;16.334;2023-03-23T05:50:19;10.05;;;7.80;;
40154;SDS011;25875;48.202;16.334;2023-03-23T05:52:47;10.57;;;6.47;;
40154;SDS011;25875;48.202;16.334;2023-03-23T05:55:15;7.40;;;5.90;;
40154;SDS011;25875;48.202;16.334;2023-03-23T05:57:42;6.45;;;5.55;;
40154;SDS011;25875;48.202;16.334;2023-03-23T06:00:09;6.85;;;5.80;;
40154;SDS011;25875;48.202;16.334;2023-03-23T06:02:45;9.82;;;6.75;;
40154;SDS011;25875;48.202;16.334;2023-03-23T06:05:13;7.53;;;5.70;;
40154;SDS011;25875;48.202;16.334;2023-03-23T06:07:41;7.20;;;5.95;;
40154;SDS011;25875;48.202;16.334;2023-03-23T06:10:10;8.02;;;5.40;;
40154;SDS011;25875;48.202;16.334;2023-03-23T06:12:37;7.72;;;5.70;;
40154;SDS011;25875;48.202;16.334;2023-03-23T06:15:07;7.63;;;5.28;;
40154;SDS011;25875;48.202;16.334;2023-03-23T06:17:36;10.00;;;6.45;;
40154;SDS011;25875;48.202;16.334;2023-03-23T06:20:03;7.97;;;5.95;;
40154;SDS011;25875;48.202;16.334;2023-03-23T06:22:35;8.77;;;6.00;;
40154;SDS011;25875;48.202;16.334;2023-03-23T06:25:03;11.27;;;7.15;;
40154;SDS011;25875;48.202;16.334;2023-03-23T06:27:32;10.10;;;7.63;;
40154;SDS011;25875;48.202;16.334;2023-03-23T06:30:00;12.85;;;8.82;;
40154;SDS011;25875;48.202;16.334;2023-03-23T06:32:28;14.55;;;6.93;;
40154;SDS011;25875;48.202;16.334;2023-03-23T06:34:56;10.02;;;6.90;;
40154;SDS011;25875;48.202;16.334;2023-03-23T06:37:23;8.88;;;6.28;;
40154;SDS011;25875;48.202;16.334;2023-03-23T06:39:50;15.27;;;6.53;;
40154;SDS011;25875;48.202;16.334;2023-03-23T06:42:18;10.00;;;6.20;;
40154;SDS011;25875;48.202;16.334;2023-03-23T06:44:46;9.45;;;6.93;;
40154;SDS011;25875;48.202;16.334;2023-03-23T06:47:13;9.10;;;6.43;;
40154;SDS011;25875;48.202;16.334;2023-03-23T06:49:40;15.10;;;6.47;;
40154;SDS011;25875;48.202;16.334;2023-03-23T06:52:09;10.55;;;6.60;;
40154;SDS011;25875;48.202;16.334;2023-03-23T06:54:36;9.60;;;6.38;;
40154;SDS011;25875;48.202;16.334;2023-03-23T06:57:03;8.63;;;6.38;;
40154;SDS011;25875;48.202;16.334;2023-03-23T06:59:30;9.73;;;6.65;;
40154;SDS011;25875;48.202;16.334;2023-03-23T07:01:58;12.50;;;7.60;;
40154;SDS011;25875;48.202;16.334;2023-03-23T07:04:25;14.07;;;7.97;;
40154;SDS011;25875;48.202;16.334;2023-03-23T07:06:52;7.97;;;6.95;;
40154;SDS011;25875;48.202;16.334;2023-03-23T07:09:19;10.05;;;8.02;;
40154;SDS011;25875;48.202;16.334;2023-03-23T07:11:46;8.73;;;7.75;;
40154;SDS011;25875;48.202;16.334;2023-03-23T07:14:13;10.07;;;6.75;;
40154;SDS011;25875;48.202;16.334;2023-03-23T07:16:40;7.38;;;6.53;;
40154;SDS011;25875;48.202;16.334;2023-03-23T07:19:09;7.45;;;6.38;;
40154;SDS011;25875;48.202;16.334;2023-03-23T07:21:36;11.18;;;7.35;;
40154;SDS011;25875;48.202;16.334;2023-03-23T07:24:03;6.93;;;6.32;;
40154;SDS011;25875;48.202;16.334;2023-03-23T07:26:30;6.93;;;6.22;;
40154;SDS011;25875;48.202;16.334;2023-03-23T07:28:57;6.57;;;5.88;;
40154;SDS011;25875;48.202;16.334;2023-03-23T07:31:24;7.57;;;6.32;;
40154;SDS011;25875;48.202;16.334;2023-03-23T07:33:51;7.25;;;6.55;;
40154;SDS011;25875;48.202;16.334;2023-03-23T07:36:20;8.20;;;6.28;;
40154;SDS011;25875;48.202;16.334;2023-03-23T07:38:47;12.40;;;6.95;;
40154;SDS011;25875;48.202;16.334;2023-03-23T07:41:15;9.68;;;6.35;;
40154;SDS011;25875;48.202;16.334;2023-03-23T07:43:42;8.32;;;6.20;;
40154;SDS011;25875;48.202;16.334;2023-03-23T07:46:09;7.35;;;6.55;;
40154;SDS011;25875;48.202;16.334;2023-03-23T07:48:36;7.93;;;5.65;;
40154;SDS011;25875;48.202;16.334;2023-03-23T07:51:04;11.48;;;6.32;;
40154;SDS011;25875;48.202;16.334;2023-03-23T07:53:33;12.50;;;6.90;;
40154;SDS011;25875;48.202;16.334;2023-03-23T07:56:00;12.45;;;6.63;;
40154;SDS011;25875;48.202;16.334;2023-03-23T07:58:28;8.00;;;6.65;;
40154;SDS011;25875;48.202;16.334;2023-03-23T08:00:56;9.05;;;7.10;;
40154;SDS011;25875;48.202;16.334;2023-03-23T08:03:23;9.15;;;6.63;;
40154;SDS011;25875;48.202;16.334;2023-03-23T08:05:49;13.77;;;6.78;;
40154;SDS011;25875;48.202;16.334;2023-03-23T08:08:16;9.85;;;7.93;;
40154;SDS011;25875;48.202;16.334;2023-03-23T08:10:45;9.75;;;8.32;;
40154;SDS011;25875;48.202;16.334;2023-03-23T08:13:11;9.93;;;7.32;;
40154;SDS011;25875;48.202;16.334;2023-03-23T08:15:39;8.57;;;6.68;;
40154;SDS011;25875;48.202;16.334;2023-03-23T08:18:06;10.73;;;8.27;;
40154;SDS011;25875;48.202;16.334;2023-03-23T08:20:33;11.02;;;8.73;;
40154;SDS011;25875;48.202;16.334;2023-03-23T08:23:00;10.07;;;8.02;;
40154;SDS011;25875;48.202;16.334;2023-03-23T08:25:28;11.07;;;9.00;;
40154;SDS011;25875;48.202;16.334;2023-03-23T08:27:59;13.45;;;9.40;;
40154;SDS011;25875;48.202;16.334;2023-03-23T08:30:27;10.77;;;8.52;;
40154;SDS011;25875;48.202;16.334;2023-03-23T08:32:55;9.65;;;8.15;;
40154;SDS011;25875;48.202;16.334;2023-03-23T08:35:23;11.52;;;9.35;;
40154;SDS011;25875;48.202;16.334;2023-03-23T08:37:50;9.73;;;8.55;;
40154;SDS011;25875;48.202;16.334;2023-03-23T08:40:18;11.95;;;9.50;;
40154;SDS011;25875;48.202;16.334;2023-03-23T08:42:47;16.63;;;9.15;;
40154;SDS011;25875;48.202;16.334;2023-03-23T08:45:18;15.10;;;9.95;;
40154;SDS011;25875;48.202;16.334;2023-03-23T08:47:46;13.52;;;10.60;;
40154;SDS011;25875;48.202;16.334;2023-03-23T08:50:18;15.27;;;10.05;;
40154;SDS011;25875;48.202;16.334;2023-03-23T08:52:46;14.45;;;10.63;;
40154;SDS011;25875;48.202;16.334;2023-03-23T08:55:14;13.88;;;11.35;;
40154;SDS011;25875;48.202;16.334;2023-03-23T08:57:43;15.05;;;10.23;;
40154;SDS011;25875;48.202;16.334;2023-03-23T09:00:11;15.05;;;9.80;;
40154;SDS011;25875;48.202;16.334;2023-03-23T09:02:43;15.82;;;9.77;;
40154;SDS011;25875;48.202;16.334;2023-03-23T09:05:12;17.23;;;10.90;;
40154;SDS011;25875;48.202;16.334;2023-03-23T09:07:42;13.38;;;9.52;;
40154;SDS011;25875;48.202;16.334;2023-03-23T09:10:11;12.35;;;9.73;;
40154;SDS011;25875;48.202;16.334;2023-03-23T09:12:38;13.20;;;9.75;;
40154;SDS011;25875;48.202;16.334;2023-03-23T09:15:07;13.90;;;8.00;;
40154;SDS011;25875;48.202;16.334;2023-03-23T09:17:35;12.63;;;8.80;;
40154;SDS011;25875;48.202;16.334;2023-03-23T09:20:06;16.85;;;8.60;;
40154;SDS011;25875;48.202;16.334;2023-03-23T09:22:37;13.75;;;9.15;;
40154;SDS011;25875;48.202;16.334;2023-03-23T09:25:05;12.75;;;9.30;;
40154;SDS011;25875;48.202;16.334;2023-03-23T09:27:32;11.35;;;9.10;;
40154;SDS011;25875;48.202;16.334;2023-03-23T09:29:59;13.13;;;9.75;;
40154;SDS011;25875;48.202;16.334;2023-03-23T09:32:26;11.27;;;8.77;;
40154;SDS011;25875;48.202;16.334;2023-03-23T09:34:54;11.05;;;8.63;;
40154;SDS011;25875;48.202;16.334;2023-03-23T09:37:23;13.15;;;8.88;;
40154;SDS011;25875;48.202;16.334;2023-03-23T09:39:49;11.75;;;9.05;;
40154;SDS011;25875;48.202;16.334;2023-03-23T09:45:10;23.67;;;8.60;;
40154;SDS011;25875;48.202;16.334;2023-03-23T09:47:46;18.25;;;8.40;;
40154;SDS011;25875;48.202;16.334;2023-03-23T09:50:27;9.60;;;7.93;;
40154;SDS011;25875;48.202;16.334;2023-03-23T09:53:00;10.38;;;7.70;;
40154;SDS011;25875;48.202;16.334;2023-03-23T09:55:31;11.82;;;7.75;;
40154;SDS011;25875;48.202;16.334;2023-03-23T09:57:59;15.55;;;7.20;;
40154;SDS011;25875;48.202;16.334;2023-03-23T10:00:30;12.63;;;9.70;;
40154;SDS011;25875;48.202;16.334;2023-03-23T10:03:02;9.90;;;6.22;;
40154;SDS011;25875;48.202;16.334;2023-03-23T10:05:34;11.40;;;7.40;;
40154;SDS011;25875;48.202;16.334;2023-03-23T10:08:08;13.35;;;7.13;;
40154;SDS011;25875;48.202;16.334;2023-03-23T10:10:41;12.52;;;8.65;;
40154;SDS011;25875;48.202;16.334;2023-03-23T10:13:17;9.80;;;6.65;;
40154;SDS011;25875;48.202;16.334;2023-03-23T10:15:50;8.75;;;7.10;;
40154;SDS011;25875;48.202;16.334;2023-03-23T10:18:20;12.40;;;7.10;;
40154;SDS011;25875;48.202;16.334;2023-03-23T10:20:56;8.45;;;7.07;;
40154;SDS011;25875;48.202;16.334;2023-03-23T10:26:28;7.82;;;6.85;;
40154;SDS011;25875;48.202;16.334;2023-03-23T10:29:08;11.95;;;6.88;;
40154;SDS011;25875;48.202;16.334;2023-03-23T10:31:43;10.60;;;6.78;;
40154;SDS011;25875;48.202;16.334;2023-03-23T10:34:17;9.25;;;6.70;;
40154;SDS011;25875;48.202;16.334;2023-03-23T10:36:51;10.18;;;7.68;;
40154;SDS011;25875;48.202;16.334;2023-03-23T10:39:26;15.20;;;9.00;;
40154;SDS011;25875;48.202;16.334;2023-03-23T10:41:59;20.20;;;8.30;;
40154;SDS011;25875;48.202;16.334;2023-03-23T10:44:32;11.73;;;7.50;;
40154;SDS011;25875;48.202;16.334;2023-03-23T10:47:02;8.82;;;7.25;;
40154;SDS011;25875;48.202;16.334;2023-03-23T10:49:32;14.18;;;7.65;;
40154;SDS011;25875;48.202;16.334;2023-03-23T10:52:05;14.35;;;7.35;;
40154;SDS011;25875;48.202;16.334;2023-03-23T10:54:46;11.40;;;7.85;;
40154;SDS011;25875;48.202;16.334;2023-03-23T10:57:22;11.82;;;7.28;;
40154;SDS011;25875;48.202;16.334;2023-03-23T10:59:50;12.35;;;6.90;;
40154;SDS011;25875;48.202;16.334;2023-03-23T11:02:18;18.10;;;8.45;;
40154;SDS011;25875;48.202;16.334;2023-03-23T11:04:56;11.13;;;8.38;;
40154;SDS011;25875;48.202;16.334;2023-03-23T11:07:29;8.57;;;7.55;;
40154;SDS011;25875;48.202;16.334;2023-03-23T11:10:05;10.57;;;7.57;;
40154;SDS011;25875;48.202;16.334;2023-03-23T11:12:43;10.05;;;7.47;;
40154;SDS011;25875;48.202;16.334;2023-03-23T11:15:21;8.38;;;7.18;;
40154;SDS011;25875;48.202;16.334;2023-03-23T11:17:55;28.70;;;8.80;;
40154;SDS011;25875;48.202;16.334;2023-03-23T11:20:26;10.70;;;7.82;;
40154;SDS011;25875;48.202;16.334;2023-03-23T11:22:54;11.18;;;9.05;;
40154;SDS011;25875;48.202;16.334;2023-03-23T11:25:23;12.10;;;8.63;;
40154;SDS011;25875;48.202;16.334;2023-03-23T11:27:51;9.88;;;7.35;;
40154;SDS011;25875;48.202;16.334;2023-03-23T11:30:22;9.05;;;7.97;;
40154;SDS011;25875;48.202;16.334;2023-03-23T11:32:52;8.65;;;6.97;;
40154;SDS011;25875;48.202;16.334;2023-03-23T11:35:22;17.63;;;8.18;;
40154;SDS011;25875;48.202;16.334;2023-03-23T11:37:52;7.05;;;5.90;;
40154;SDS011;25875;48.202;16.334;2023-03-23T11:40:22;6.78;;;5.15;;
40154;SDS011;25875;48.202;16.334;2023-03-23T11:42:59;7.45;;;4.82;;
40154;SDS011;25875;48.202;16.334;2023-03-23T11:45:31;9.60;;;6.40;;
40154;SDS011;25875;48.202;16.334;2023-03-23T11:48:03;10.20;;;6.23;;
40154;SDS011;25875;48.202;16.334;2023-03-23T11:50:44;7.05;;;5.82;;
40154;SDS011;25875;48.202;16.334;2023-03-23T11:53:17;7.93;;;5.40;;
40154;SDS011;25875;48.202;16.334;2023-03-23T11:55:55;8.65;;;5.10;;
40154;SDS011;25875;48.202;16.334;2023-03-23T11:58:27;6.20;;;4.95;;
40154;SDS011;25875;48.202;16.334;2023-03-23T12:00:58;7.63;;;5.07;;
40154;SDS011;25875;48.202;16.334;2023-03-23T12:03:42;11.43;;;5.57;;
40154;SDS011;25875;48.202;16.334;2023-03-23T12:06:32;7.30;;;4.97;;
40154;SDS011;25875;48.202;16.334;2023-03-23T12:09:09;16.58;;;5.80;;
40154;SDS011;25875;48.202;16.334;2023-03-23T12:11:52;7.88;;;5.97;;
40154;SDS011;25875;48.202;16.334;2023-03-23T12:14:27;8.13;;;5.43;;
40154;SDS011;25875;48.202;16.334;2023-03-23T12:17:11;11.90;;;5.50;;
40154;SDS011;25875;48.202;16.334;2023-03-23T12:19:48;10.73;;;5.95;;
40154;SDS011;25875;48.202;16.334;2023-03-23T12:22:30;5.78;;;4.72;;
40154;SDS011;25875;48.202;16.334;2023-03-23T12:25:09;6.70;;;5.88;;
40154;SDS011;25875;48.202;16.334;2023-03-23T12:27:49;8.93;;;7.25;;
40154;SDS011;25875;48.202;16.334;2023-03-23T12:30:28;7.90;;;6.38;;
40154;SDS011;25875;48.202;16.334;2023-03-23T12:33:03;11.75;;;6.05;;
40154;SDS011;25875;48.202;16.334;2023-03-23T12:35:41;7.05;;;5.45;;
40154;SDS011;25875;48.202;16.334;2023-03-23T12:38:25;16.27;;;5.78;;
40154;SDS011;25875;48.202;16.334;2023-03-23T12:41:05;8.75;;;5.25;;
40154;SDS011;25875;48.202;16.334;2023-03-23T12:43:41;7.80;;;5.38;;
40154;SDS011;25875;48.202;16.334;2023-03-23T12:46:19;11.27;;;6.22;;
40154;SDS011;25875;48.202;16.334;2023-03-23T12:49:04;12.27;;;5.20;;
40154;SDS011;25875;48.202;16.334;2023-03-23T12:51:35;10.73;;;7.65;;
40154;SDS011;25875;48.202;16.334;2023-03-23T12:54:10;10.73;;;6.93;;
40154;SDS011;25875;48.202;16.334;2023-03-23T12:56:44;11.27;;;5.80;;
40154;SDS011;25875;48.202;16.334;2023-03-23T12:59:22;10.07;;;5.95;;
40154;SDS011;25875;48.202;16.334;2023-03-23T13:01:54;8.45;;;5.70;;
40154;SDS011;25875;48.202;16.334;2023-03-23T13:04:26;8.48;;;5.20;;
40154;SDS011;25875;48.202;16.334;2023-03-23T13:06:59;8.43;;;5.20;;
40154;SDS011;25875;48.202;16.334;2023-03-23T13:09:30;11.38;;;5.47;;
40154;SDS011;25875;48.202;16.334;2023-03-23T13:12:03;6.38;;;5.57;;
40154;SDS011;25875;48.202;16.334;2023-03-23T13:14:37;7.57;;;5.53;;
40154;SDS011;25875;48.202;16.334;2023-03-23T13:17:15;6.18;;;5.07;;
40154;SDS011;25875;48.202;16.334;2023-03-23T13:22:50;8.05;;;5.00;;
40154;SDS011;25875;48.202;16.334;2023-03-23T13:25:25;5.63;;;4.47;;
40154;SDS011;25875;48.202;16.334;2023-03-23T13:28:12;5.72;;;3.97;;
40154;SDS011;25875;48.202;16.334;2023-03-23T13:30:57;6.03;;;4.25;;
40154;SDS011;25875;48.202;16.334;2023-03-23T13:33:29;5.97;;;4.22;;
40154;SDS011;25875;48.202;16.334;2023-03-23T13:36:01;5.95;;;4.13;;
40154;SDS011;25875;48.202;16.334;2023-03-23T13:38:35;7.10;;;4.20;;
40154;SDS011;25875;48.202;16.334;2023-03-23T13:41:10;8.70;;;4.65;;
40154;SDS011;25875;48.202;16.334;2023-03-23T13:43:39;9.00;;;4.55;;
40154;SDS011;25875;48.202;16.334;2023-03-23T13:46:11;5.82;;;4.82;;
40154;SDS011;25875;48.202;16.334;2023-03-23T13:48:50;7.20;;;3.90;;
40154;SDS011;25875;48.202;16.334;2023-03-23T13:51:34;6.63;;;3.78;;
40154;SDS011;25875;48.202;16.334;2023-03-23T13:54:12;7.53;;;4.43;;
40154;SDS011;25875;48.202;16.334;2023-03-23T13:56:47;9.95;;;4.65;;
40154;SDS011;25875;48.202;16.334;2023-03-23T13:59:28;5.97;;;4.10;;
40154;SDS011;25875;48.202;16.334;2023-03-23T14:05:10;7.40;;;3.83;;
40154;SDS011;25875;48.202;16.334;2023-03-23T14:07:53;5.55;;;3.80;;
40154;SDS011;25875;48.202;16.334;2023-03-23T14:10:25;7.72;;;4.20;;
40154;SDS011;25875;48.202;16.334;2023-03-23T14:13:00;7.03;;;5.50;;
40154;SDS011;25875;48.202;16.334;2023-03-23T14:15:28;7.32;;;4.72;;
40154;SDS011;25875;48.202;16.334;2023-03-23T14:17:57;8.70;;;4.68;;
40154;SDS011;25875;48.202;16.334;2023-03-23T14:20:30;6.35;;;4.57;;
40154;SDS011;25875;48.202;16.334;2023-03-23T14:22:59;11.82;;;5.97;;
40154;SDS011;25875;48.202;16.334;2023-03-23T14:25:29;8.70;;;6.05;;
40154;SDS011;25875;48.202;16.334;2023-03-23T14:27:59;11.65;;;8.65;;
40154;SDS011;25875;48.202;16.334;2023-03-23T14:30:27;11.77;;;5.80;;
40154;SDS011;25875;48.202;16.334;2023-03-23T14:33:04;11.15;;;7.32;;
40154;SDS011;25875;48.202;16.334;2023-03-23T14:35:34;14.93;;;10.10;;
40154;SDS011;25875;48.202;16.334;2023-03-23T14:38:02;14.85;;;9.93;;
40154;SDS011;25875;48.202;16.334;2023-03-23T14:40:33;12.23;;;8.05;;
40154;SDS011;25875;48.202;16.334;2023-03-23T14:43:00;18.42;;;7.95;;
40154;SDS011;25875;48.202;16.334;2023-03-23T14:45:30;15.18;;;9.20;;
40154;SDS011;25875;48.202;16.334;2023-03-23T14:47:59;10.30;;;6.75;;
40154;SDS011;25875;48.202;16.334;2023-03-23T14:50:30;14.32;;;8.52;;
40154;SDS011;25875;48.202;16.334;2023-03-23T14:53:09;13.20;;;8.52;;
40154;SDS011;25875;48.202;16.334;2023-03-23T14:55:41;10.77;;;6.60;;
40154;SDS011;25875;48.202;16.334;2023-03-23T14:58:12;7.68;;;5.07;;
40154;SDS011;25875;48.202;16.334;2023-03-23T15:00:41;9.68;;;6.70;;
40154;SDS011;25875;48.202;16.334;2023-03-23T15:03:12;9.45;;;5.00;;
40154;SDS011;25875;48.202;16.334;2023-03-23T15:05:45;10.57;;;6.47;;